Observation data for Reese Center on 11/08/2019      Previous  Date       Current Mesonet Observations  Soil Data  Daily Summary Page  Observations in Plain Language
KREE 080600Z 01007KT 00/M00 A3045 RMK A01 T00041003  RH  096%=      5-min Rain = 0
KREE 080605Z 01007KT 00/M00 A3045 RMK A01 T00041003  RH  096%=      5-min Rain = 0
KREE 080610Z 01007KT 00/M00 A3045 RMK A01 T00041003  RH  096%=      5-min Rain = 0
KREE 080615Z 00006KT 00/M00 A3045 RMK A01 T00041003  RH  096%=      5-min Rain = 0
KREE 080620Z 01006KT 00/M00 A3045 RMK A01 T00041002  RH  096%=      5-min Rain = 0
KREE 080625Z 00006KT 00/M00 A3045 RMK A01 T00041002  RH  097%=      5-min Rain = 0
KREE 080630Z 00006KT 01/M00 A3045 RMK A01 T00051001  RH  097%=      5-min Rain = 0
KREE 080635Z 01006KT 00/M00 A3045 RMK A01 T00041002  RH  097%=      5-min Rain = 0
KREE 080640Z 00005KT 01/M00 A3045 RMK A01 T00051001  RH  097%=      5-min Rain = 0
KREE 080645Z 36006KT 00/M00 A3044 RMK A01 T00041002  RH  097%=      5-min Rain = 0
KREE 080650Z 36006KT 00/M00 A3044 RMK A01 T00041002  RH  097%=      5-min Rain = 0
KREE 080655Z 00006KT 00/M00 A3044 RMK A01 T00041001  RH  097%=      5-min Rain = 0
KREE 080700Z 01006KT 00/M00 A3044 RMK A01 T00031002  RH  097%=      5-min Rain = 0
KREE 080705Z 01006KT 00/M00 A3044 RMK A01 T00021003  RH  097%=      5-min Rain = 0
KREE 080710Z 01005KT 00/M00 A3044 RMK A01 T00031002  RH  097%=      5-min Rain = 0
KREE 080715Z 36004KT 00/M00 A3044 RMK A01 T00031002  RH  097%=      5-min Rain = 0
KREE 080720Z 00004KT 00/M00 A3044 RMK A01 T00041001  RH  097%=      5-min Rain = 0
KREE 080725Z 35004KT 00/M00 A3044 RMK A01 T00031002  RH  097%=      5-min Rain = 0
KREE 080730Z 36004KT 00/M00 A3044 RMK A01 T00031002  RH  097%=      5-min Rain = 0
KREE 080735Z 35004KT 00/M00 A3043 RMK A01 T00031002  RH  097%=      5-min Rain = 0
KREE 080740Z 34004KT 00/M00 A3043 RMK A01 T00041001  RH  097%=      5-min Rain = 0
KREE 080745Z 34005KT 00/M00 A3043 RMK A01 T00041002  RH  097%=      5-min Rain = 0
KREE 080750Z 34004KT 00/M00 A3043 RMK A01 T00041002  RH  097%=      5-min Rain = 0
KREE 080755Z 34004KT 00/M00 A3043 RMK A01 T00041001  RH  098%=      5-min Rain = 0
KREE 080800Z 33004KT 01/00 A3043 RMK A01 T00050000  RH  098%=      5-min Rain = 0
KREE 080805Z 34005KT 01/00 A3043 RMK A01 T00050000  RH  098%=      5-min Rain = 0
KREE 080810Z 34005KT 01/00 A3043 RMK A01 T00050000  RH  098%=      5-min Rain = 0
KREE 080815Z 34006KT 01/00 A3043 RMK A01 T00050001  RH  098%=      5-min Rain = 0
KREE 080820Z 34006KT 01/00 A3043 RMK A01 T00050001  RH  098%=      5-min Rain = 0.01
KREE 080825Z 34006KT 01/00 A3043 RMK A01 T00050001  RH  098%=      5-min Rain = 0
KREE 080830Z 34006KT 01/00 A3043 RMK A01 T00050001  RH  098%=      5-min Rain = 0
KREE 080835Z 34006KT 01/00 A3043 RMK A01 T00050001  RH  098%=      5-min Rain = 0
KREE 080840Z 34005KT 01/00 A3042 RMK A01 T00060002  RH  098%=      5-min Rain = 0
KREE 080845Z 34005KT 01/00 A3042 RMK A01 T00060002  RH  098%=      5-min Rain = 0
KREE 080850Z 34005KT 01/00 A3042 RMK A01 T00060002  RH  098%=      5-min Rain = 0
KREE 080855Z 33006KT 01/00 A3042 RMK A01 T00070003  RH  098%=      5-min Rain = 0
KREE 080900Z 33005KT 01/00 A3042 RMK A01 T00060003  RH  098%=      5-min Rain = 0
KREE 080905Z 34005KT 01/00 A3042 RMK A01 T00070003  RH  099%=      5-min Rain = 0
KREE 080910Z 35005KT 01/00 A3042 RMK A01 T00070003  RH  099%=      5-min Rain = 0
KREE 080915Z 34004KT 01/00 A3041 RMK A01 T00070003  RH  099%=      5-min Rain = 0
KREE 080920Z 35003KT 01/00 A3041 RMK A01 T00070003  RH  099%=      5-min Rain = 0
KREE 080925Z 35003KT 01/00 A3041 RMK A01 T00060003  RH  099%=      5-min Rain = 0
KREE 080930Z 36003KT 01/00 A3041 RMK A01 T00070003  RH  099%=      5-min Rain = 0
KREE 080935Z 01003KT 01/00 A3041 RMK A01 T00070004  RH  099%=      5-min Rain = 0
KREE 080940Z 02003KT 01/00 A304 RMK A01 T00080004  RH  099%=      5-min Rain = 0
KREE 080945Z 02003KT 01/00 A304 RMK A01 T00080004  RH  099%=      5-min Rain = 0
KREE 080950Z 02004KT 01/00 A304 RMK A01 T00070004  RH  099%=      5-min Rain = 0
KREE 080955Z 01003KT 01/00 A304 RMK A01 T00070004  RH  099%=      5-min Rain = 0
KREE 081000Z 36003KT 01/00 A3041 RMK A01 T00070004  RH  099%=      5-min Rain = 0
KREE 081005Z 35004KT 01/00 A3041 RMK A01 T00070004  RH  099%=      5-min Rain = 0
KREE 081010Z 34004KT 01/01 A3041 RMK A01 T00080005  RH  099%=      5-min Rain = 0
KREE 081015Z 34005KT 01/01 A3041 RMK A01 T00080005  RH  099%=      5-min Rain = 0
KREE 081020Z 34004KT 01/01 A3041 RMK A01 T00080005  RH  099%=      5-min Rain = 0
KREE 081025Z 35005KT 01/01 A3041 RMK A01 T00090006  RH  099%=      5-min Rain = 0
KREE 081030Z 35005KT 01/01 A3041 RMK A01 T00090006  RH  099%=      5-min Rain = 0
KREE 081035Z 35004KT 01/01 A3041 RMK A01 T00090006  RH  099%=      5-min Rain = 0
KREE 081040Z 35004KT 01/01 A3041 RMK A01 T00100007  RH  099%=      5-min Rain = 0
KREE 081045Z 35004KT 01/01 A3041 RMK A01 T00100007  RH  099%=      5-min Rain = 0
KREE 081050Z 36003KT 01/01 A304 RMK A01 T00100007  RH  099%=      5-min Rain = 0
KREE 081055Z 36003KT 01/01 A304 RMK A01 T00100007  RH  099%=      5-min Rain = 0
KREE 081100Z 00003KT 01/01 A304 RMK A01 T00100008  RH  099%=      5-min Rain = 0
KREE 081105Z 36004KT 01/01 A304 RMK A01 T00110008  RH  099%=      5-min Rain = 0
KREE 081110Z 35005KT 01/01 A304 RMK A01 T00110009  RH  099%=      5-min Rain = 0
KREE 081115Z 35004KT 01/01 A304 RMK A01 T00110009  RH  099%=      5-min Rain = 0
KREE 081120Z 35004KT 01/01 A304 RMK A01 T00110009  RH  099%=      5-min Rain = 0
KREE 081125Z 36004KT 01/01 A304 RMK A01 T00120009  RH  099%=      5-min Rain = 0
KREE 081130Z 34004KT 01/01 A304 RMK A01 T00120009  RH  099%=      5-min Rain = 0
KREE 081135Z 34004KT 01/01 A304 RMK A01 T00120010  RH  099%=      5-min Rain = 0
KREE 081140Z 35002KT 01/01 A304 RMK A01 T00120010  RH  099%=      5-min Rain = 0
KREE 081145Z 35001KT 01/01 A3039 RMK A01 T00120010  RH  099%=      5-min Rain = 0
KREE 081150Z 04001KT 01/01 A3039 RMK A01 T00120010  RH  099%=      5-min Rain = 0
KREE 081155Z 05001KT 01/01 A3039 RMK A01 T00120009  RH  099%=      5-min Rain = 0
KREE 081200Z 00001KT 01/01 A3039 RMK A01 T00120009  RH  099%=      5-min Rain = 0
KREE 081205Z 35002KT 01/01 A304 RMK A01 T00130010  RH  099%=      5-min Rain = 0
KREE 081210Z 00002KT 01/01 A304 RMK A01 T00130010  RH  099%=      5-min Rain = 0
KREE 081215Z 03002KT 01/01 A3039 RMK A01 T00140011  RH  099%=      5-min Rain = 0
KREE 081220Z 04001KT 01/01 A3039 RMK A01 T00140011  RH  099%=      5-min Rain = 0
KREE 081225Z 05000KT 01/01 A3039 RMK A01 T00130010  RH  099%=      5-min Rain = 0
KREE 081230Z 05000KT 01/01 A3039 RMK A01 T00130010  RH  099%=      5-min Rain = 0
KREE 081235Z 07001KT 01/01 A3039 RMK A01 T00130010  RH  099%=      5-min Rain = 0
KREE 081240Z 11002KT 01/01 A3039 RMK A01 T00130010  RH  099%=      5-min Rain = 0
KREE 081245Z 12001KT 01/01 A3039 RMK A01 T00130010  RH  099%=      5-min Rain = 0
KREE 081250Z 14001KT 01/01 A3039 RMK A01 T00140011  RH  099%=      5-min Rain = 0
KREE 081255Z 13000KT 01/01 A3039 RMK A01 T00140011  RH  099%=      5-min Rain = 0
KREE 081300Z 10001KT 01/01 A3039 RMK A01 T00140011  RH  099%=      5-min Rain = 0
KREE 081305Z 10001KT 01/01 A3039 RMK A01 T00140011  RH  099%=      5-min Rain = 0
KREE 081310Z 12001KT 02/01 A3038 RMK A01 T00150012  RH  099%=      5-min Rain = 0
KREE 081315Z 13002KT 02/01 A3038 RMK A01 T00150012  RH  099%=      5-min Rain = 0
KREE 081320Z 14002KT 02/01 A3038 RMK A01 T00160012  RH  099%=      5-min Rain = 0
KREE 081325Z 13002KT 02/01 A3038 RMK A01 T00170013  RH  099%=      5-min Rain = 0
KREE 081330Z 11002KT 02/01 A3038 RMK A01 T00160012  RH  099%=      5-min Rain = 0
KREE 081335Z 11001KT 02/01 A3039 RMK A01 T00170013  RH  099%=      5-min Rain = 0
KREE 081340Z 13001KT 02/01 A3038 RMK A01 T00180014  RH  099%=      5-min Rain = 0
KREE 081345Z 14000KT 02/01 A3039 RMK A01 T00180014  RH  098%=      5-min Rain = 0
KREE 081350Z 14000KT 02/01 A3039 RMK A01 T00180014  RH  098%=      5-min Rain = 0
KREE 081355Z 12000KT 02/02 A304 RMK A01 T00190015  RH  098%=      5-min Rain = 0
KREE 081400Z 35001KT 02/02 A304 RMK A01 T00190015  RH  098%=      5-min Rain = 0
KREE 081405Z 33001KT 02/02 A304 RMK A01 T00190015  RH  098%=      5-min Rain = 0
KREE 081410Z 31001KT 02/02 A304 RMK A01 T00190015  RH  098%=      5-min Rain = 0
KREE 081415Z 33002KT 02/02 A3041 RMK A01 T00200015  RH  098%=      5-min Rain = 0
KREE 081420Z 33002KT 02/02 A3041 RMK A01 T00200015  RH  098%=      5-min Rain = 0
KREE 081425Z 31002KT 02/02 A3041 RMK A01 T00210015  RH  097%=      5-min Rain = 0
KREE 081430Z 33002KT 02/02 A3041 RMK A01 T00210015  RH  097%=      5-min Rain = 0
KREE 081435Z 32002KT 02/01 A3042 RMK A01 T00210014  RH  097%=      5-min Rain = 0
KREE 081440Z 30000KT 02/02 A3041 RMK A01 T00210015  RH  096%=      5-min Rain = 0
KREE 081445Z 30001KT 02/02 A3041 RMK A01 T00220015  RH  096%=      5-min Rain = 0
KREE 081450Z 30000KT 02/02 A3042 RMK A01 T00220015  RH  096%=      5-min Rain = 0
KREE 081455Z 23001KT 02/02 A3042 RMK A01 T00230016  RH  096%=      5-min Rain = 0
KREE 081500Z 23000KT 02/02 A3042 RMK A01 T00240016  RH  096%=      5-min Rain = 0
KREE 081505Z 23000KT 02/02 A3042 RMK A01 T00240016  RH  095%=      5-min Rain = 0
KREE 081510Z 24001KT 03/02 A3042 RMK A01 T00250016  RH  095%=      5-min Rain = 0
KREE 081515Z 30001KT 03/02 A3042 RMK A01 T00250017  RH  095%=      5-min Rain = 0
KREE 081520Z 29001KT 03/02 A3042 RMK A01 T00260017  RH  095%=      5-min Rain = 0
KREE 081525Z 31001KT 03/02 A3042 RMK A01 T00260017  RH  095%=      5-min Rain = 0
KREE 081530Z 31001KT 03/02 A3043 RMK A01 T00270017  RH  094%=      5-min Rain = 0
KREE 081535Z 31001KT 03/02 A3043 RMK A01 T00270017  RH  094%=      5-min Rain = 0
KREE 081540Z 22000KT 03/02 A3043 RMK A01 T00280018  RH  094%=      5-min Rain = 0
KREE 081545Z 27001KT 03/02 A3043 RMK A01 T00290019  RH  094%=      5-min Rain = 0
KREE 081550Z 19001KT 03/02 A3043 RMK A01 T00310021  RH  094%=      5-min Rain = 0
KREE 081555Z 23001KT 03/02 A3043 RMK A01 T00320021  RH  094%=      5-min Rain = 0
KREE 081600Z 25001KT 03/02 A3043 RMK A01 T00330022  RH  094%=      5-min Rain = 0
KREE 081605Z 23001KT 03/02 A3043 RMK A01 T00330022  RH  093%=      5-min Rain = 0
KREE 081610Z 20001KT 03/02 A3042 RMK A01 T00340022  RH  093%=      5-min Rain = 0
KREE 081615Z 18002KT 04/02 A3042 RMK A01 T00350024  RH  093%=      5-min Rain = 0
KREE 081620Z 19002KT 04/03 A3042 RMK A01 T00370025  RH  093%=      5-min Rain = 0
KREE 081625Z 20002KT 04/02 A3041 RMK A01 T00360024  RH  093%=      5-min Rain = 0
KREE 081630Z 20002KT 04/03 A3041 RMK A01 T00370025  RH  093%=      5-min Rain = 0
KREE 081635Z 18002KT 04/03 A3041 RMK A01 T00370025  RH  093%=      5-min Rain = 0
KREE 081640Z 19002KT 04/03 A3041 RMK A01 T00390027  RH  093%=      5-min Rain = 0
KREE 081645Z 20004KT 04/03 A3041 RMK A01 T00410028  RH  093%=      5-min Rain = 0
KREE 081650Z 20004KT 04/03 A304 RMK A01 T00410028  RH  093%=      5-min Rain = 0
KREE 081655Z 20005KT 04/03 A304 RMK A01 T00420030  RH  093%=      5-min Rain = 0
KREE 081700Z 19005KT 04/03 A304 RMK A01 T00430031  RH  093%=      5-min Rain = 0
KREE 081705Z 21006KT 04/03 A304 RMK A01 T00440032  RH  093%=      5-min Rain = 0
KREE 081710Z 21005KT 05/03 A304 RMK A01 T00450033  RH  093%=      5-min Rain = 0
KREE 081715Z 24004KT 05/03 A304 RMK A01 T00460034  RH  093%=      5-min Rain = 0
KREE 081720Z 21005KT 05/03 A304 RMK A01 T00460034  RH  093%=      5-min Rain = 0
KREE 081725Z 24005KT 05/04 A3039 RMK A01 T00480036  RH  093%=      5-min Rain = 0
KREE 081730Z 22006KT 05/04 A3039 RMK A01 T00510039  RH  093%=      5-min Rain = 0
KREE 081735Z 22007KT 05/04 A3038 RMK A01 T00530042  RH  093%=      5-min Rain = 0
KREE 081740Z 23007KT 05/04 A3038 RMK A01 T00530040  RH  092%=      5-min Rain = 0
KREE 081745Z 23006KT 05/04 A3038 RMK A01 T00540041  RH  092%=      5-min Rain = 0
KREE 081750Z 23007KT 06/04 A3038 RMK A01 T00570044  RH  092%=      5-min Rain = 0
KREE 081755Z 24006KT 06/04 A3038 RMK A01 T00570042  RH  091%=      5-min Rain = 0
KREE 081800Z 24005KT 06/04 A3037 RMK A01 T00590044  RH  091%=      5-min Rain = 0
KREE 081805Z 24006KT 06/05 A3037 RMK A01 T00620046  RH  091%=      5-min Rain = 0
KREE 081810Z 24006KT 06/04 A3036 RMK A01 T00610044  RH  090%=      5-min Rain = 0
KREE 081815Z 27006KT 06/05 A3036 RMK A01 T00620046  RH  090%=      5-min Rain = 0
KREE 081820Z 24006KT 06/05 A3035 RMK A01 T00640047  RH  090%=      5-min Rain = 0
KREE 081825Z 25007KT 07/05 A3035 RMK A01 T00650048  RH  090%=      5-min Rain = 0
KREE 081830Z 25006KT 07/05 A3035 RMK A01 T00680050  RH  090%=      5-min Rain = 0
KREE 081835Z 24008KT 07/05 A3035 RMK A01 T00700050  RH  088%=      5-min Rain = 0
KREE 081840Z 24006KT 07/05 A3034 RMK A01 T00720051  RH  088%=      5-min Rain = 0
KREE 081845Z 25006KT 07/05 A3034 RMK A01 T00730052  RH  088%=      5-min Rain = 0
KREE 081850Z 24006KT 08/05 A3034 RMK A01 T00750053  RH  087%=      5-min Rain = 0
KREE 081855Z 24006KT 08/05 A3034 RMK A01 T00760053  RH  086%=      5-min Rain = 0
KREE 081900Z 23007KT 08/05 A3034 RMK A01 T00770054  RH  086%=      5-min Rain = 0
KREE 081905Z 22007KT 08/05 A3033 RMK A01 T00770054  RH  086%=      5-min Rain = 0
KREE 081910Z 23007KT 08/06 A3033 RMK A01 T00790055  RH  086%=      5-min Rain = 0
KREE 081915Z 22006KT 08/06 A3033 RMK A01 T00810057  RH  086%=      5-min Rain = 0
KREE 081920Z 25007KT 08/06 A3033 RMK A01 T00810056  RH  085%=      5-min Rain = 0
KREE 081925Z 23007KT 08/06 A3032 RMK A01 T00820057  RH  085%=      5-min Rain = 0
KREE 081930Z 22007KT 08/06 A3032 RMK A01 T00830058  RH  085%=      5-min Rain = 0
KREE 081935Z 22007KT 09/06 A3032 RMK A01 T00850059  RH  085%=      5-min Rain = 0
KREE 081940Z 23007KT 09/06 A3032 RMK A01 T00870061  RH  085%=      5-min Rain = 0
KREE 081945Z 23005KT 09/06 A3031 RMK A01 T00910063  RH  084%=      5-min Rain = 0
KREE 081950Z 25007KT 09/06 A3031 RMK A01 T00940064  RH  082%=      5-min Rain = 0
KREE 081955Z 23005KT 09/06 A3031 RMK A01 T00940063  RH  082%=      5-min Rain = 0
KREE 082000Z 25006KT 09/06 A3031 RMK A01 T00940062  RH  082%=      5-min Rain = 0
KREE 082005Z 26007KT 10/06 A3031 RMK A01 T00950063  RH  082%=      5-min Rain = 0
KREE 082010Z 25006KT 10/07 A3031 RMK A01 T00970065  RH  082%=      5-min Rain = 0
KREE 082015Z 26006KT 10/07 A3031 RMK A01 T00980066  RH  082%=      5-min Rain = 0
KREE 082020Z 26007KT 10/07 A303 RMK A01 T00980066  RH  081%=      5-min Rain = 0
KREE 082025Z 28006KT 10/07 A303 RMK A01 T01010068  RH  081%=      5-min Rain = 0
KREE 082030Z 28005KT 10/07 A303 RMK A01 T01020069  RH  081%=      5-min Rain = 0
KREE 082035Z 26006KT 10/07 A303 RMK A01 T01030069  RH  081%=      5-min Rain = 0
KREE 082040Z 27007KT 11/07 A3029 RMK A01 T01050071  RH  080%=      5-min Rain = 0
KREE 082045Z 27006KT 11/07 A3029 RMK A01 T01070070  RH  079%=      5-min Rain = 0
KREE 082050Z 26006KT 11/07 A3029 RMK A01 T01090071  RH  079%=      5-min Rain = 0
KREE 082055Z 28005KT 11/07 A3029 RMK A01 T01120073  RH  078%=      5-min Rain = 0
KREE 082100Z 27005KT 11/07 A3029 RMK A01 T01110072  RH  078%=      5-min Rain = 0
KREE 082105Z 28006KT 11/07 A3029 RMK A01 T01110073  RH  079%=      5-min Rain = 0
KREE 082110Z 26007KT 11/07 A3029 RMK A01 T01110072  RH  078%=      5-min Rain = 0
KREE 082115Z 24006G11KT 11/07 A3029 RMK A01 T01120073  RH  078%=      5-min Rain = 0
KREE 082120Z 25007KT 11/07 A3029 RMK A01 T01140074  RH  078%=      5-min Rain = 0
KREE 082125Z 26005KT 11/07 A3029 RMK A01 T01140074  RH  077%=      5-min Rain = 0
KREE 082130Z 26005KT 12/07 A3028 RMK A01 T01150074  RH  077%=      5-min Rain = 0
KREE 082135Z 26005KT 11/07 A3029 RMK A01 T01140074  RH  078%=      5-min Rain = 0
KREE 082140Z 26006KT 12/08 A3028 RMK A01 T01160075  RH  077%=      5-min Rain = 0
KREE 082145Z 27004KT 12/08 A3029 RMK A01 T01150075  RH  077%=      5-min Rain = 0
KREE 082150Z 27005KT 12/08 A3029 RMK A01 T01160076  RH  077%=      5-min Rain = 0
KREE 082155Z 27006KT 12/08 A3029 RMK A01 T01180076  RH  077%=      5-min Rain = 0
KREE 082200Z 29005KT 12/08 A3028 RMK A01 T01190077  RH  077%=      5-min Rain = 0
KREE 082205Z 28006KT 12/08 A3028 RMK A01 T01180077  RH  077%=      5-min Rain = 0
KREE 082210Z 28006KT 12/08 A3028 RMK A01 T01180077  RH  077%=      5-min Rain = 0
KREE 082215Z 26007KT 12/08 A3028 RMK A01 T01190078  RH  077%=      5-min Rain = 0
KREE 082220Z 27007KT 12/08 A3028 RMK A01 T01200078  RH  076%=      5-min Rain = 0
KREE 082225Z 24009KT 12/08 A3028 RMK A01 T01200078  RH  076%=      5-min Rain = 0
KREE 082230Z 25008KT 12/08 A3028 RMK A01 T01200077  RH  076%=      5-min Rain = 0
KREE 082235Z 24007KT 12/08 A3028 RMK A01 T01210078  RH  076%=      5-min Rain = 0
KREE 082240Z 24009KT 12/08 A3028 RMK A01 T01230078  RH  075%=      5-min Rain = 0
KREE 082245Z 24009KT 13/08 A3028 RMK A01 T01250077  RH  073%=      5-min Rain = 0
KREE 082250Z 24006KT 13/08 A3028 RMK A01 T01260078  RH  073%=      5-min Rain = 0
KREE 082255Z 24008KT 13/08 A3028 RMK A01 T01260077  RH  073%=      5-min Rain = 0
KREE 082300Z 23007KT 13/08 A3028 RMK A01 T01270078  RH  073%=      5-min Rain = 0
KREE 082305Z 24007KT 13/08 A3028 RMK A01 T01250077  RH  074%=      5-min Rain = 0
KREE 082310Z 23006KT 13/08 A3028 RMK A01 T01250078  RH  074%=      5-min Rain = 0
KREE 082315Z 23007KT 12/08 A3028 RMK A01 T01240078  RH  075%=      5-min Rain = 0
KREE 082320Z 23006KT 12/08 A3028 RMK A01 T01220077  RH  075%=      5-min Rain = 0
KREE 082325Z 23004KT 12/08 A3027 RMK A01 T01190077  RH  076%=      5-min Rain = 0
KREE 082330Z 23005KT 12/08 A3027 RMK A01 T01150075  RH  078%=      5-min Rain = 0
KREE 082335Z 23005KT 11/07 A3027 RMK A01 T01100074  RH  080%=      5-min Rain = 0
KREE 082340Z 23005KT 11/07 A3027 RMK A01 T01070073  RH  081%=      5-min Rain = 0
KREE 082345Z 22005KT 10/07 A3027 RMK A01 T01040073  RH  082%=      5-min Rain = 0
KREE 082350Z 21004KT 10/07 A3028 RMK A01 T01010071  RH  083%=      5-min Rain = 0
KREE 082355Z 20004KT 10/07 A3027 RMK A01 T00970070  RH  085%=      5-min Rain = 0
KREE 090000Z 21005KT 10/07 A3028 RMK A01 T00960072  RH  086%=      5-min Rain = 0
KREE 090005Z 20005KT 09/07 A3028 RMK A01 T00940072  RH  087%=      5-min Rain = 0
KREE 090010Z 19006KT 09/07 A3028 RMK A01 T00920071  RH  088%=      5-min Rain = 0
KREE 090015Z 19006KT 09/07 A3028 RMK A01 T00940074  RH  089%=      5-min Rain = 0
KREE 090020Z 18006KT 09/07 A3028 RMK A01 T00920073  RH  089%=      5-min Rain = 0
KREE 090025Z 18007KT 09/07 A3028 RMK A01 T00900071  RH  089%=      5-min Rain = 0
KREE 090030Z 18007KT 09/07 A3028 RMK A01 T00880070  RH  090%=      5-min Rain = 0
KREE 090035Z 18007KT 09/07 A3028 RMK A01 T00860069  RH  090%=      5-min Rain = 0
KREE 090040Z 18007KT 08/07 A3028 RMK A01 T00840068  RH  091%=      5-min Rain = 0
KREE 090045Z 19008KT 08/07 A3028 RMK A01 T00830068  RH  091%=      5-min Rain = 0
KREE 090050Z 19007KT 08/07 A3028 RMK A01 T00820067  RH  092%=      5-min Rain = 0
KREE 090055Z 18007KT 08/07 A3029 RMK A01 T00810067  RH  092%=      5-min Rain = 0
KREE 090100Z 19007KT 08/07 A3029 RMK A01 T00800067  RH  093%=      5-min Rain = 0
KREE 090105Z 19007KT 08/07 A3029 RMK A01 T00790066  RH  093%=      5-min Rain = 0
KREE 090110Z 19008KT 08/07 A3029 RMK A01 T00780066  RH  093%=      5-min Rain = 0
KREE 090115Z 19007KT 08/07 A3029 RMK A01 T00770065  RH  093%=      5-min Rain = 0
KREE 090120Z 19008KT 08/06 A3029 RMK A01 T00760064  RH  093%=      5-min Rain = 0
KREE 090125Z 19008KT 08/06 A3029 RMK A01 T00760064  RH  094%=      5-min Rain = 0
KREE 090130Z 19008KT 08/06 A3029 RMK A01 T00760064  RH  094%=      5-min Rain = 0
KREE 090135Z 19007KT 08/06 A3029 RMK A01 T00750064  RH  094%=      5-min Rain = 0
KREE 090140Z 19007KT 08/06 A3029 RMK A01 T00750064  RH  094%=      5-min Rain = 0
KREE 090145Z 19007KT 08/06 A3029 RMK A01 T00750064  RH  094%=      5-min Rain = 0
KREE 090150Z 20008KT 07/06 A3029 RMK A01 T00740063  RH  094%=      5-min Rain = 0
KREE 090155Z 20007KT 07/06 A3029 RMK A01 T00730062  RH  094%=      5-min Rain = 0
KREE 090200Z 20007KT 07/06 A3029 RMK A01 T00740063  RH  094%=      5-min Rain = 0
KREE 090205Z 20007KT 07/06 A3029 RMK A01 T00730062  RH  094%=      5-min Rain = 0
KREE 090210Z 20006KT 07/06 A3029 RMK A01 T00720061  RH  094%=      5-min Rain = 0
KREE 090215Z 20006KT 07/06 A3029 RMK A01 T00710061  RH  095%=      5-min Rain = 0
KREE 090220Z 20007KT 07/06 A3029 RMK A01 T00690059  RH  095%=      5-min Rain = 0
KREE 090225Z 20006KT 07/06 A3029 RMK A01 T00680059  RH  095%=      5-min Rain = 0
KREE 090230Z 20007KT 07/06 A3029 RMK A01 T00680059  RH  095%=      5-min Rain = 0
KREE 090235Z 20006KT 07/06 A3029 RMK A01 T00670058  RH  095%=      5-min Rain = 0
KREE 090240Z 20006KT 07/06 A3029 RMK A01 T00660058  RH  096%=      5-min Rain = 0
KREE 090245Z 20005KT 07/06 A3029 RMK A01 T00650057  RH  096%=      5-min Rain = 0
KREE 090250Z 19006KT 06/06 A3029 RMK A01 T00640056  RH  096%=      5-min Rain = 0
KREE 090255Z 20005KT 06/06 A3029 RMK A01 T00630055  RH  096%=      5-min Rain = 0
KREE 090300Z 20006KT 06/06 A3029 RMK A01 T00630055  RH  096%=      5-min Rain = 0
KREE 090305Z 19007KT 06/06 A3029 RMK A01 T00620055  RH  096%=      5-min Rain = 0
KREE 090310Z 20006KT 06/06 A3029 RMK A01 T00620055  RH  096%=      5-min Rain = 0
KREE 090315Z 20008KT 06/05 A3029 RMK A01 T00610054  RH  096%=      5-min Rain = 0
KREE 090320Z 21006KT 06/05 A3029 RMK A01 T00610054  RH  097%=      5-min Rain = 0
KREE 090325Z 22007KT 06/05 A3029 RMK A01 T00590052  RH  096%=      5-min Rain = 0
KREE 090330Z 22008KT 06/05 A3029 RMK A01 T00550048  RH  096%=      5-min Rain = 0
KREE 090335Z 22007KT 05/04 A303 RMK A01 T00510043  RH  096%=      5-min Rain = 0
KREE 090340Z 22007KT 05/04 A303 RMK A01 T00470040  RH  097%=      5-min Rain = 0
KREE 090345Z 22007KT 05/04 A303 RMK A01 T00470041  RH  097%=      5-min Rain = 0
KREE 090350Z 22007KT 05/04 A303 RMK A01 T00470041  RH  097%=      5-min Rain = 0
KREE 090355Z 22007KT 05/04 A303 RMK A01 T00470041  RH  097%=      5-min Rain = 0
KREE 090400Z 22007KT 05/04 A303 RMK A01 T00470041  RH  097%=      5-min Rain = 0
KREE 090405Z 22006KT 05/04 A303 RMK A01 T00470041  RH  097%=      5-min Rain = 0
KREE 090410Z 22006KT 05/04 A303 RMK A01 T00460041  RH  097%=      5-min Rain = 0
KREE 090415Z 23005KT 05/04 A303 RMK A01 T00450040  RH  098%=      5-min Rain = 0
KREE 090420Z 23006KT 05/04 A303 RMK A01 T00480043  RH  098%=      5-min Rain = 0
KREE 090425Z 23006KT 05/04 A303 RMK A01 T00470041  RH  098%=      5-min Rain = 0
KREE 090430Z 23006KT 05/04 A303 RMK A01 T00460040  RH  098%=      5-min Rain = 0
KREE 090435Z 23006KT 05/04 A303 RMK A01 T00450040  RH  098%=      5-min Rain = 0
KREE 090440Z 23006KT 05/04 A303 RMK A01 T00450039  RH  098%=      5-min Rain = 0
KREE 090445Z 22006KT 04/04 A303 RMK A01 T00440039  RH  098%=      5-min Rain = 0
KREE 090450Z 23006KT 04/04 A303 RMK A01 T00440039  RH  098%=      5-min Rain = 0
KREE 090455Z 23006KT 04/04 A303 RMK A01 T00440039  RH  098%=      5-min Rain = 0
KREE 090500Z 23007KT 04/04 A3029 RMK A01 T00430038  RH  098%=      5-min Rain = 0
KREE 090505Z 23007KT 04/04 A303 RMK A01 T00430038  RH  098%=      5-min Rain = 0
KREE 090510Z 23006KT 04/04 A303 RMK A01 T00430039  RH  098%=      5-min Rain = 0
KREE 090515Z 23006KT 04/04 A303 RMK A01 T00410037  RH  098%=      5-min Rain = 0
KREE 090520Z 23006KT 04/04 A303 RMK A01 T00400035  RH  098%=      5-min Rain = 0
KREE 090525Z 23006KT 04/03 A303 RMK A01 T00370032  RH  098%=      5-min Rain = 0
KREE 090530Z 23006KT 04/03 A3029 RMK A01 T00350030  RH  098%=      5-min Rain = 0
KREE 090535Z 23006KT 03/03 A3029 RMK A01 T00330028  RH  098%=      5-min Rain = 0
KREE 090540Z 23006KT 03/03 A3029 RMK A01 T00320028  RH  098%=      5-min Rain = 0
KREE 090545Z 23007KT 03/03 A3029 RMK A01 T00330029  RH  099%=      5-min Rain = 0
KREE 090550Z 23007KT 04/03 A3029 RMK A01 T00350032  RH  099%=      5-min Rain = 0
KREE 090555Z 23007KT 03/03 A3029 RMK A01 T00340031  RH  099%=      5-min Rain = 0

Page generated in 0.015 seconds.